sensor_id;sensor_type;location;lat;lon;timestamp;temperature;humidity
69281;SHT31;56392;51.082;17.080;2023-07-30T00:01:07;18.34;81.98
69281;SHT31;56392;51.082;17.080;2023-07-30T00:06:32;18.32;81.99
69281;SHT31;56392;51.082;17.080;2023-07-30T00:11:56;18.37;81.75
69281;SHT31;56392;51.082;17.080;2023-07-30T00:17:20;18.34;81.80
69281;SHT31;56392;51.082;17.080;2023-07-30T00:22:45;18.41;81.26
69281;SHT31;56392;51.082;17.080;2023-07-30T00:28:08;18.32;81.41
69281;SHT31;56392;51.082;17.080;2023-07-30T00:33:31;18.28;81.58
69281;SHT31;56392;51.082;17.080;2023-07-30T00:38:55;18.40;81.12
69281;SHT31;56392;51.082;17.080;2023-07-30T00:44:20;18.54;80.15
69281;SHT31;56392;51.082;17.080;2023-07-30T00:49:45;18.30;80.94
69281;SHT31;56392;51.082;17.080;2023-07-30T00:55:09;18.13;81.43
69281;SHT31;56392;51.082;17.080;2023-07-30T01:00:33;18.01;81.67
69281;SHT31;56392;51.082;17.080;2023-07-30T01:05:56;17.93;82.10
69281;SHT31;56392;51.082;17.080;2023-07-30T01:11:21;18.00;82.17
69281;SHT31;56392;51.082;17.080;2023-07-30T01:16:45;18.08;81.44
69281;SHT31;56392;51.082;17.080;2023-07-30T01:22:09;18.03;81.27
69281;SHT31;56392;51.082;17.080;2023-07-30T01:27:36;17.96;81.46
69281;SHT31;56392;51.082;17.080;2023-07-30T01:33:03;17.87;81.65
69281;SHT31;56392;51.082;17.080;2023-07-30T01:38:28;17.79;81.53
69281;SHT31;56392;51.082;17.080;2023-07-30T01:43:52;17.79;81.56
69281;SHT31;56392;51.082;17.080;2023-07-30T01:49:15;17.82;81.43
69281;SHT31;56392;51.082;17.080;2023-07-30T01:54:39;17.82;80.99
69281;SHT31;56392;51.082;17.080;2023-07-30T02:00:05;17.77;80.90
69281;SHT31;56392;51.082;17.080;2023-07-30T02:05:28;17.67;81.28
69281;SHT31;56392;51.082;17.080;2023-07-30T02:10:56;17.60;81.28
69281;SHT31;56392;51.082;17.080;2023-07-30T02:16:20;17.59;81.44
69281;SHT31;56392;51.082;17.080;2023-07-30T02:21:43;17.56;80.92
69281;SHT31;56392;51.082;17.080;2023-07-30T02:27:07;17.43;81.49
69281;SHT31;56392;51.082;17.080;2023-07-30T02:32:34;17.31;81.60
69281;SHT31;56392;51.082;17.080;2023-07-30T02:37:59;17.25;82.16
69281;SHT31;56392;51.082;17.080;2023-07-30T02:43:24;17.23;82.23
69281;SHT31;56392;51.082;17.080;2023-07-30T02:48:47;17.14;82.00
69281;SHT31;56392;51.082;17.080;2023-07-30T02:54:10;17.14;82.50
69281;SHT31;56392;51.082;17.080;2023-07-30T02:59:35;17.12;82.41
69281;SHT31;56392;51.082;17.080;2023-07-30T03:04:59;17.14;82.40
69281;SHT31;56392;51.082;17.080;2023-07-30T03:10:22;17.05;82.39
69281;SHT31;56392;51.082;17.080;2023-07-30T03:15:46;17.04;82.76
69281;SHT31;56392;51.082;17.080;2023-07-30T03:21:09;17.02;82.98
69281;SHT31;56392;51.082;17.080;2023-07-30T03:26:32;17.02;82.74
69281;SHT31;56392;51.082;17.080;2023-07-30T03:31:57;17.05;83.23
69281;SHT31;56392;51.082;17.080;2023-07-30T03:37:20;17.07;82.90
69281;SHT31;56392;51.082;17.080;2023-07-30T03:42:43;17.08;83.11
69281;SHT31;56392;51.082;17.080;2023-07-30T03:48:07;17.08;83.18
69281;SHT31;56392;51.082;17.080;2023-07-30T03:53:31;17.14;83.45
69281;SHT31;56392;51.082;17.080;2023-07-30T03:58:54;17.18;83.39
69281;SHT31;56392;51.082;17.080;2023-07-30T04:04:18;17.21;83.53
69281;SHT31;56392;51.082;17.080;2023-07-30T04:09:41;17.31;83.50
69281;SHT31;56392;51.082;17.080;2023-07-30T04:15:07;17.47;83.25
69281;SHT31;56392;51.082;17.080;2023-07-30T04:20:31;17.62;83.17
69281;SHT31;56392;51.082;17.080;2023-07-30T04:25:55;17.66;83.33
69281;SHT31;56392;51.082;17.080;2023-07-30T04:31:18;17.83;83.14
69281;SHT31;56392;51.082;17.080;2023-07-30T04:36:42;17.98;82.04
69281;SHT31;56392;51.082;17.080;2023-07-30T04:42:05;18.14;81.70
69281;SHT31;56392;51.082;17.080;2023-07-30T04:47:28;18.30;81.26
69281;SHT31;56392;51.082;17.080;2023-07-30T04:52:55;18.42;80.86
69281;SHT31;56392;51.082;17.080;2023-07-30T04:58:18;18.59;81.13
69281;SHT31;56392;51.082;17.080;2023-07-30T05:03:41;18.83;80.97
69281;SHT31;56392;51.082;17.080;2023-07-30T05:09:06;18.99;79.46
69281;SHT31;56392;51.082;17.080;2023-07-30T05:14:29;19.54;78.51
69281;SHT31;56392;51.082;17.080;2023-07-30T05:19:52;20.28;76.65
69281;SHT31;56392;51.082;17.080;2023-07-30T05:25:20;20.94;75.23
69281;SHT31;56392;51.082;17.080;2023-07-30T05:30:44;21.49;74.68
69281;SHT31;56392;51.082;17.080;2023-07-30T05:36:07;22.13;73.78
69281;SHT31;56392;51.082;17.080;2023-07-30T05:41:31;22.53;72.00
69281;SHT31;56392;51.082;17.080;2023-07-30T05:46:55;23.05;70.86
69281;SHT31;56392;51.082;17.080;2023-07-30T05:52:18;23.50;69.40
69281;SHT31;56392;51.082;17.080;2023-07-30T05:57:42;23.90;69.30
69281;SHT31;56392;51.082;17.080;2023-07-30T06:03:06;24.32;67.36
69281;SHT31;56392;51.082;17.080;2023-07-30T06:08:31;24.65;65.19
69281;SHT31;56392;51.082;17.080;2023-07-30T06:13:56;24.95;64.24
69281;SHT31;56392;51.082;17.080;2023-07-30T06:19:21;25.09;63.63
69281;SHT31;56392;51.082;17.080;2023-07-30T06:24:44;25.50;64.01
69281;SHT31;56392;51.082;17.080;2023-07-30T06:30:11;25.80;62.43
69281;SHT31;56392;51.082;17.080;2023-07-30T06:35:34;25.89;61.32
69281;SHT31;56392;51.082;17.080;2023-07-30T06:40:57;26.05;60.26
69281;SHT31;56392;51.082;17.080;2023-07-30T06:46:22;26.43;59.57
69281;SHT31;56392;51.082;17.080;2023-07-30T06:51:45;26.64;58.39
69281;SHT31;56392;51.082;17.080;2023-07-30T06:57:08;26.80;58.98
69281;SHT31;56392;51.082;17.080;2023-07-30T07:02:32;27.08;57.98
69281;SHT31;56392;51.082;17.080;2023-07-30T07:07:55;27.27;57.60
69281;SHT31;56392;51.082;17.080;2023-07-30T07:13:18;27.11;57.28
69281;SHT31;56392;51.082;17.080;2023-07-30T07:18:43;27.23;56.85
69281;SHT31;56392;51.082;17.080;2023-07-30T07:24:06;27.62;57.09
69281;SHT31;56392;51.082;17.080;2023-07-30T07:29:30;27.86;56.08
69281;SHT31;56392;51.082;17.080;2023-07-30T07:34:55;28.02;54.96
69281;SHT31;56392;51.082;17.080;2023-07-30T07:40:18;28.14;54.79
69281;SHT31;56392;51.082;17.080;2023-07-30T07:45:41;28.33;54.12
69281;SHT31;56392;51.082;17.080;2023-07-30T07:51:06;28.36;52.96
69281;SHT31;56392;51.082;17.080;2023-07-30T07:56:31;28.41;53.52
69281;SHT31;56392;51.082;17.080;2023-07-30T08:01:55;28.36;53.51
69281;SHT31;56392;51.082;17.080;2023-07-30T08:07:22;28.50;53.08
69281;SHT31;56392;51.082;17.080;2023-07-30T08:12:47;28.77;53.46
69281;SHT31;56392;51.082;17.080;2023-07-30T08:18:11;28.94;51.22
69281;SHT31;56392;51.082;17.080;2023-07-30T08:23:36;29.11;50.89
69281;SHT31;56392;51.082;17.080;2023-07-30T08:28:59;29.46;49.95
69281;SHT31;56392;51.082;17.080;2023-07-30T08:34:23;29.59;49.99
69281;SHT31;56392;51.082;17.080;2023-07-30T08:39:48;29.35;48.15
69281;SHT31;56392;51.082;17.080;2023-07-30T08:45:11;29.89;49.91
69281;SHT31;56392;51.082;17.080;2023-07-30T08:50:38;30.07;50.28
69281;SHT31;56392;51.082;17.080;2023-07-30T08:56:08;30.44;48.36
69281;SHT31;56392;51.082;17.080;2023-07-30T09:01:37;30.65;47.23
69281;SHT31;56392;51.082;17.080;2023-07-30T09:07:01;30.99;46.53
69281;SHT31;56392;51.082;17.080;2023-07-30T09:12:28;31.57;44.61
69281;SHT31;56392;51.082;17.080;2023-07-30T09:17:55;32.86;43.38
69281;SHT31;56392;51.082;17.080;2023-07-30T09:23:19;36.57;36.13
69281;SHT31;56392;51.082;17.080;2023-07-30T09:28:44;37.28;35.58
69281;SHT31;56392;51.082;17.080;2023-07-30T09:34:08;37.45;34.62
69281;SHT31;56392;51.082;17.080;2023-07-30T09:39:32;35.95;36.23
69281;SHT31;56392;51.082;17.080;2023-07-30T09:44:59;34.96;37.71
69281;SHT31;56392;51.082;17.080;2023-07-30T09:50:23;33.58;38.99
69281;SHT31;56392;51.082;17.080;2023-07-30T09:55:47;35.95;35.16
69281;SHT31;56392;51.082;17.080;2023-07-30T10:01:11;36.51;34.62
69281;SHT31;56392;51.082;17.080;2023-07-30T10:06:44;40.51;29.74
69281;SHT31;56392;51.082;17.080;2023-07-30T10:12:10;41.60;27.86
69281;SHT31;56392;51.082;17.080;2023-07-30T10:17:35;42.27;27.23
69281;SHT31;56392;51.082;17.080;2023-07-30T10:23:00;39.08;30.47
69281;SHT31;56392;51.082;17.080;2023-07-30T10:28:27;38.40;30.34
69281;SHT31;56392;51.082;17.080;2023-07-30T10:33:57;41.17;27.89
69281;SHT31;56392;51.082;17.080;2023-07-30T10:39:25;40.21;29.64
69281;SHT31;56392;51.082;17.080;2023-07-30T10:44:49;38.23;31.36
69281;SHT31;56392;51.082;17.080;2023-07-30T10:50:13;36.02;34.17
69281;SHT31;56392;51.082;17.080;2023-07-30T10:55:38;32.90;39.88
69281;SHT31;56392;51.082;17.080;2023-07-30T11:01:02;33.47;38.46
69281;SHT31;56392;51.082;17.080;2023-07-30T11:06:27;32.72;39.68
69281;SHT31;56392;51.082;17.080;2023-07-30T11:11:51;31.99;41.00
69281;SHT31;56392;51.082;17.080;2023-07-30T11:17:17;30.80;42.58
69281;SHT31;56392;51.082;17.080;2023-07-30T11:22:43;30.03;44.22
69281;SHT31;56392;51.082;17.080;2023-07-30T11:28:06;29.39;45.52
69281;SHT31;56392;51.082;17.080;2023-07-30T11:33:29;28.24;49.02
69281;SHT31;56392;51.082;17.080;2023-07-30T11:38:54;27.84;50.12
69281;SHT31;56392;51.082;17.080;2023-07-30T11:44:30;27.75;50.57
69281;SHT31;56392;51.082;17.080;2023-07-30T11:49:57;27.68;51.16
69281;SHT31;56392;51.082;17.080;2023-07-30T11:55:22;27.23;52.57
69281;SHT31;56392;51.082;17.080;2023-07-30T12:00:46;26.94;54.44
69281;SHT31;56392;51.082;17.080;2023-07-30T12:06:10;26.60;55.07
69281;SHT31;56392;51.082;17.080;2023-07-30T12:11:44;26.24;55.80
69281;SHT31;56392;51.082;17.080;2023-07-30T12:17:07;25.99;55.77
69281;SHT31;56392;51.082;17.080;2023-07-30T12:22:30;25.88;55.78
69281;SHT31;56392;51.082;17.080;2023-07-30T12:27:55;25.63;56.58
69281;SHT31;56392;51.082;17.080;2023-07-30T12:33:17;25.51;56.97
69281;SHT31;56392;51.082;17.080;2023-07-30T12:38:41;25.44;57.55
69281;SHT31;56392;51.082;17.080;2023-07-30T12:44:05;25.54;58.32
69281;SHT31;56392;51.082;17.080;2023-07-30T12:49:29;25.71;58.23
69281;SHT31;56392;51.082;17.080;2023-07-30T12:54:52;25.67;57.51
69281;SHT31;56392;51.082;17.080;2023-07-30T13:00:19;25.53;57.37
69281;SHT31;56392;51.082;17.080;2023-07-30T13:05:42;25.57;57.28
69281;SHT31;56392;51.082;17.080;2023-07-30T13:11:06;25.53;57.26
69281;SHT31;56392;51.082;17.080;2023-07-30T13:16:31;25.57;57.52
69281;SHT31;56392;51.082;17.080;2023-07-30T13:21:54;25.46;57.88
69281;SHT31;56392;51.082;17.080;2023-07-30T13:27:17;25.50;57.85
69281;SHT31;56392;51.082;17.080;2023-07-30T13:32:42;25.78;57.72
69281;SHT31;56392;51.082;17.080;2023-07-30T13:38:05;26.06;57.00
69281;SHT31;56392;51.082;17.080;2023-07-30T13:43:28;26.09;56.65
69281;SHT31;56392;51.082;17.080;2023-07-30T13:48:53;26.05;57.01
69281;SHT31;56392;51.082;17.080;2023-07-30T13:54:16;26.06;57.45
69281;SHT31;56392;51.082;17.080;2023-07-30T13:59:38;25.99;57.62
69281;SHT31;56392;51.082;17.080;2023-07-30T14:05:07;26.04;57.90
69281;SHT31;56392;51.082;17.080;2023-07-30T14:10:31;26.08;58.04
69281;SHT31;56392;51.082;17.080;2023-07-30T14:15:54;26.05;57.91
69281;SHT31;56392;51.082;17.080;2023-07-30T14:21:19;26.09;57.03
69281;SHT31;56392;51.082;17.080;2023-07-30T14:26:42;26.09;56.51
69281;SHT31;56392;51.082;17.080;2023-07-30T14:32:06;26.04;55.79
69281;SHT31;56392;51.082;17.080;2023-07-30T14:37:30;25.98;55.40
69281;SHT31;56392;51.082;17.080;2023-07-30T14:42:56;26.02;55.72
69281;SHT31;56392;51.082;17.080;2023-07-30T14:48:19;26.08;54.93
69281;SHT31;56392;51.082;17.080;2023-07-30T14:53:44;26.26;54.23
69281;SHT31;56392;51.082;17.080;2023-07-30T14:59:07;26.14;55.12
69281;SHT31;56392;51.082;17.080;2023-07-30T15:04:30;26.02;54.98
69281;SHT31;56392;51.082;17.080;2023-07-30T15:09:54;25.92;55.11
69281;SHT31;56392;51.082;17.080;2023-07-30T15:15:17;25.47;55.68
69281;SHT31;56392;51.082;17.080;2023-07-30T15:20:41;24.80;56.62
69281;SHT31;56392;51.082;17.080;2023-07-30T15:26:05;24.45;57.32
69281;SHT31;56392;51.082;17.080;2023-07-30T15:31:28;24.17;58.54
69281;SHT31;56392;51.082;17.080;2023-07-30T15:36:52;23.83;61.65
69281;SHT31;56392;51.082;17.080;2023-07-30T15:42:16;23.27;65.10
69281;SHT31;56392;51.082;17.080;2023-07-30T15:47:39;22.75;67.10
69281;SHT31;56392;51.082;17.080;2023-07-30T15:53:03;22.27;67.81
69281;SHT31;56392;51.082;17.080;2023-07-30T15:58:27;22.09;69.17
69281;SHT31;56392;51.082;17.080;2023-07-30T16:03:50;21.93;69.28
69281;SHT31;56392;51.082;17.080;2023-07-30T16:09:13;21.79;70.06
69281;SHT31;56392;51.082;17.080;2023-07-30T16:14:38;21.75;70.73
69281;SHT31;56392;51.082;17.080;2023-07-30T16:20:02;21.54;72.81
69281;SHT31;56392;51.082;17.080;2023-07-30T16:25:26;21.54;73.16
69281;SHT31;56392;51.082;17.080;2023-07-30T16:30:50;21.42;74.49
69281;SHT31;56392;51.082;17.080;2023-07-30T16:36:14;21.67;73.95
69281;SHT31;56392;51.082;17.080;2023-07-30T16:41:37;21.67;73.24
69281;SHT31;56392;51.082;17.080;2023-07-30T16:47:02;21.78;72.06
69281;SHT31;56392;51.082;17.080;2023-07-30T16:52:25;21.85;72.50
69281;SHT31;56392;51.082;17.080;2023-07-30T16:57:48;21.97;71.84
69281;SHT31;56392;51.082;17.080;2023-07-30T17:03:13;21.99;70.83
69281;SHT31;56392;51.082;17.080;2023-07-30T17:08:36;21.89;70.26
69281;SHT31;56392;51.082;17.080;2023-07-30T17:13:59;21.75;70.03
69281;SHT31;56392;51.082;17.080;2023-07-30T17:19:25;21.69;70.10
69281;SHT31;56392;51.082;17.080;2023-07-30T17:24:48;21.42;72.30
69281;SHT31;56392;51.082;17.080;2023-07-30T17:30:15;21.21;74.71
69281;SHT31;56392;51.082;17.080;2023-07-30T17:35:39;21.04;75.52
69281;SHT31;56392;51.082;17.080;2023-07-30T17:41:03;21.18;74.53
69281;SHT31;56392;51.082;17.080;2023-07-30T17:46:26;21.21;74.54
69281;SHT31;56392;51.082;17.080;2023-07-30T17:51:51;21.11;75.02
69281;SHT31;56392;51.082;17.080;2023-07-30T17:57:14;21.03;75.62
69281;SHT31;56392;51.082;17.080;2023-07-30T18:02:37;20.94;77.03
69281;SHT31;56392;51.082;17.080;2023-07-30T18:08:01;20.90;76.15
69281;SHT31;56392;51.082;17.080;2023-07-30T18:13:24;20.91;76.21
69281;SHT31;56392;51.082;17.080;2023-07-30T18:18:47;20.74;76.89
69281;SHT31;56392;51.082;17.080;2023-07-30T18:24:12;20.69;77.26
69281;SHT31;56392;51.082;17.080;2023-07-30T18:29:35;20.57;77.73
69281;SHT31;56392;51.082;17.080;2023-07-30T18:34:58;20.46;78.27
69281;SHT31;56392;51.082;17.080;2023-07-30T18:40:23;20.39;78.56
69281;SHT31;56392;51.082;17.080;2023-07-30T18:45:46;20.28;79.07
69281;SHT31;56392;51.082;17.080;2023-07-30T18:51:09;20.18;79.36
69281;SHT31;56392;51.082;17.080;2023-07-30T18:56:34;20.06;79.59
69281;SHT31;56392;51.082;17.080;2023-07-30T19:01:57;19.96;80.26
69281;SHT31;56392;51.082;17.080;2023-07-30T19:07:20;19.96;79.70
69281;SHT31;56392;51.082;17.080;2023-07-30T19:12:45;19.96;79.73
69281;SHT31;56392;51.082;17.080;2023-07-30T19:18:08;20.11;79.71
69281;SHT31;56392;51.082;17.080;2023-07-30T19:23:31;20.22;79.91
69281;SHT31;56392;51.082;17.080;2023-07-30T19:28:56;20.36;79.79
69281;SHT31;56392;51.082;17.080;2023-07-30T19:34:20;20.26;79.12
69281;SHT31;56392;51.082;17.080;2023-07-30T19:39:43;20.33;78.11
69281;SHT31;56392;51.082;17.080;2023-07-30T19:45:08;20.43;78.19
69281;SHT31;56392;51.082;17.080;2023-07-30T19:50:32;20.56;77.50
69281;SHT31;56392;51.082;17.080;2023-07-30T19:55:56;20.42;76.49
69281;SHT31;56392;51.082;17.080;2023-07-30T20:01:20;20.21;75.31
69281;SHT31;56392;51.082;17.080;2023-07-30T20:06:43;20.05;75.94
69281;SHT31;56392;51.082;17.080;2023-07-30T20:12:07;20.06;75.62
69281;SHT31;56392;51.082;17.080;2023-07-30T20:17:32;20.02;75.96
69281;SHT31;56392;51.082;17.080;2023-07-30T20:22:55;20.02;75.71
69281;SHT31;56392;51.082;17.080;2023-07-30T20:28:19;20.09;75.63
69281;SHT31;56392;51.082;17.080;2023-07-30T20:33:45;20.19;75.54
69281;SHT31;56392;51.082;17.080;2023-07-30T20:39:08;20.19;75.06
69281;SHT31;56392;51.082;17.080;2023-07-30T20:44:34;20.04;75.19
69281;SHT31;56392;51.082;17.080;2023-07-30T20:49:58;19.92;75.68
69281;SHT31;56392;51.082;17.080;2023-07-30T20:55:22;19.92;75.66
69281;SHT31;56392;51.082;17.080;2023-07-30T21:00:45;19.91;75.63
69281;SHT31;56392;51.082;17.080;2023-07-30T21:06:09;19.91;74.99
69281;SHT31;56392;51.082;17.080;2023-07-30T21:11:32;19.96;74.83
69281;SHT31;56392;51.082;17.080;2023-07-30T21:16:56;19.95;74.38
69281;SHT31;56392;51.082;17.080;2023-07-30T21:22:21;19.89;74.92
69281;SHT31;56392;51.082;17.080;2023-07-30T21:27:45;19.91;75.21
69281;SHT31;56392;51.082;17.080;2023-07-30T21:33:08;19.81;75.57
69281;SHT31;56392;51.082;17.080;2023-07-30T21:38:33;19.67;76.33
69281;SHT31;56392;51.082;17.080;2023-07-30T21:43:56;19.64;76.36
69281;SHT31;56392;51.082;17.080;2023-07-30T21:49:19;19.57;76.53
69281;SHT31;56392;51.082;17.080;2023-07-30T21:54:43;19.28;77.65
69281;SHT31;56392;51.082;17.080;2023-07-30T22:00:08;19.17;77.81
69281;SHT31;56392;51.082;17.080;2023-07-30T22:05:31;19.24;78.07
69281;SHT31;56392;51.082;17.080;2023-07-30T22:10:56;19.26;77.88
69281;SHT31;56392;51.082;17.080;2023-07-30T22:16:19;19.22;77.66
69281;SHT31;56392;51.082;17.080;2023-07-30T22:21:42;19.34;77.24
69281;SHT31;56392;51.082;17.080;2023-07-30T22:27:07;19.34;76.96
69281;SHT31;56392;51.082;17.080;2023-07-30T22:32:31;19.26;77.18
69281;SHT31;56392;51.082;17.080;2023-07-30T22:37:54;19.23;77.27
69281;SHT31;56392;51.082;17.080;2023-07-30T22:43:20;19.19;77.43
69281;SHT31;56392;51.082;17.080;2023-07-30T22:48:43;19.06;77.76
69281;SHT31;56392;51.082;17.080;2023-07-30T22:54:07;19.02;78.05
69281;SHT31;56392;51.082;17.080;2023-07-30T22:59:31;18.98;77.85
69281;SHT31;56392;51.082;17.080;2023-07-30T23:04:54;19.00;78.10
69281;SHT31;56392;51.082;17.080;2023-07-30T23:10:17;19.03;78.17
69281;SHT31;56392;51.082;17.080;2023-07-30T23:15:42;18.95;78.34
69281;SHT31;56392;51.082;17.080;2023-07-30T23:21:05;18.88;78.34
69281;SHT31;56392;51.082;17.080;2023-07-30T23:26:29;18.86;78.20
69281;SHT31;56392;51.082;17.080;2023-07-30T23:31:53;18.88;77.93
69281;SHT31;56392;51.082;17.080;2023-07-30T23:37:16;18.89;77.92
69281;SHT31;56392;51.082;17.080;2023-07-30T23:42:39;18.81;78.15
69281;SHT31;56392;51.082;17.080;2023-07-30T23:48:04;18.76;78.16
69281;SHT31;56392;51.082;17.080;2023-07-30T23:53:27;18.79;78.00
69281;SHT31;56392;51.082;17.080;2023-07-30T23:58:50;18.93;77.21
